sensor_id;sensor_type;location;lat;lon;timestamp;pressure;altitude;pressure_sealevel;temperature;humidity
50444;BME280;36370;52.216;21.142;2022-11-15T00:01:47;100977.00;;;5.90;100.00
50444;BME280;36370;52.216;21.142;2022-11-15T00:06:08;100978.88;;;5.85;100.00
50444;BME280;36370;52.216;21.142;2022-11-15T00:10:28;100975.25;;;5.91;100.00
50444;BME280;36370;52.216;21.142;2022-11-15T00:14:49;100962.63;;;5.77;100.00
50444;BME280;36370;52.216;21.142;2022-11-15T00:19:09;100959.53;;;5.92;100.00
50444;BME280;36370;52.216;21.142;2022-11-15T00:23:30;100960.44;;;5.91;100.00
50444;BME280;36370;52.216;21.142;2022-11-15T00:27:55;100946.88;;;6.08;100.00
50444;BME280;36370;52.216;21.142;2022-11-15T00:32:16;100945.44;;;6.00;100.00
50444;BME280;36370;52.216;21.142;2022-11-15T00:36:36;100935.53;;;5.83;100.00
50444;BME280;36370;52.216;21.142;2022-11-15T00:40:57;100938.78;;;5.89;100.00
50444;BME280;36370;52.216;21.142;2022-11-15T00:45:17;100927.22;;;5.98;100.00
50444;BME280;36370;52.216;21.142;2022-11-15T00:49:38;100925.72;;;5.89;100.00
50444;BME280;36370;52.216;21.142;2022-11-15T00:53:58;100913.38;;;5.94;100.00
50444;BME280;36370;52.216;21.142;2022-11-15T00:58:18;100909.44;;;6.09;100.00
50444;BME280;36370;52.216;21.142;2022-11-15T01:02:39;100900.91;;;6.04;100.00
50444;BME280;36370;52.216;21.142;2022-11-15T01:06:59;100895.72;;;6.03;100.00
50444;BME280;36370;52.216;21.142;2022-11-15T01:11:20;100892.19;;;6.05;100.00
50444;BME280;36370;52.216;21.142;2022-11-15T01:15:41;100889.53;;;6.07;100.00
50444;BME280;36370;52.216;21.142;2022-11-15T01:20:02;100877.09;;;6.14;100.00
50444;BME280;36370;52.216;21.142;2022-11-15T01:24:23;100870.88;;;6.18;100.00
50444;BME280;36370;52.216;21.142;2022-11-15T01:28:43;100865.44;;;6.24;100.00
50444;BME280;36370;52.216;21.142;2022-11-15T01:33:04;100850.75;;;6.21;100.00
50444;BME280;36370;52.216;21.142;2022-11-15T01:37:24;100844.56;;;6.24;100.00
50444;BME280;36370;52.216;21.142;2022-11-15T01:41:45;100842.06;;;6.21;100.00
50444;BME280;36370;52.216;21.142;2022-11-15T01:50:45;100830.75;;;5.97;100.00
50444;BME280;36370;52.216;21.142;2022-11-15T01:55:20;100838.47;;;6.00;100.00
50444;BME280;36370;52.216;21.142;2022-11-15T01:59:44;100827.19;;;6.23;100.00
50444;BME280;36370;52.216;21.142;2022-11-15T02:04:12;100813.25;;;6.24;100.00
50444;BME280;36370;52.216;21.142;2022-11-15T02:08:33;100823.56;;;6.03;100.00
50444;BME280;36370;52.216;21.142;2022-11-15T02:12:54;100823.97;;;5.91;100.00
50444;BME280;36370;52.216;21.142;2022-11-15T02:21:49;100822.09;;;5.69;100.00
50444;BME280;36370;52.216;21.142;2022-11-15T02:30:52;100816.47;;;5.82;100.00
50444;BME280;36370;52.216;21.142;2022-11-15T02:35:43;100819.00;;;5.83;100.00
50444;BME280;36370;52.216;21.142;2022-11-15T02:40:34;100816.94;;;5.93;100.00
50444;BME280;36370;52.216;21.142;2022-11-15T02:45:02;100819.59;;;5.66;100.00
50444;BME280;36370;52.216;21.142;2022-11-15T02:49:26;100817.25;;;5.84;100.00
50444;BME280;36370;52.216;21.142;2022-11-15T02:53:48;100809.91;;;5.95;100.00
50444;BME280;36370;52.216;21.142;2022-11-15T03:07:46;100784.09;;;5.87;100.00
50444;BME280;36370;52.216;21.142;2022-11-15T03:12:07;100777.63;;;5.99;100.00
50444;BME280;36370;52.216;21.142;2022-11-15T03:16:41;100783.13;;;5.90;100.00
50444;BME280;36370;52.216;21.142;2022-11-15T03:21:07;100773.47;;;5.93;100.00
50444;BME280;36370;52.216;21.142;2022-11-15T03:25:29;100770.84;;;5.68;100.00
50444;BME280;36370;52.216;21.142;2022-11-15T03:29:58;100757.53;;;5.76;100.00
50444;BME280;36370;52.216;21.142;2022-11-15T03:38:47;100749.78;;;5.74;100.00
50444;BME280;36370;52.216;21.142;2022-11-15T03:43:24;100738.28;;;5.80;100.00
50444;BME280;36370;52.216;21.142;2022-11-15T03:47:52;100726.09;;;5.81;100.00
50444;BME280;36370;52.216;21.142;2022-11-15T03:52:17;100715.81;;;5.76;100.00
50444;BME280;36370;52.216;21.142;2022-11-15T03:56:38;100723.88;;;5.70;100.00
50444;BME280;36370;52.216;21.142;2022-11-15T04:00:59;100726.00;;;5.58;100.00
50444;BME280;36370;52.216;21.142;2022-11-15T04:05:20;100722.44;;;5.61;100.00
50444;BME280;36370;52.216;21.142;2022-11-15T04:09:40;100723.47;;;5.57;100.00
50444;BME280;36370;52.216;21.142;2022-11-15T04:14:19;100711.97;;;5.63;100.00
50444;BME280;36370;52.216;21.142;2022-11-15T04:18:40;100691.28;;;5.58;100.00
50444;BME280;36370;52.216;21.142;2022-11-15T04:23:06;100695.28;;;5.67;100.00
50444;BME280;36370;52.216;21.142;2022-11-15T04:27:45;100696.94;;;5.69;100.00
50444;BME280;36370;52.216;21.142;2022-11-15T04:32:06;100689.81;;;5.74;100.00
50444;BME280;36370;52.216;21.142;2022-11-15T04:36:27;100679.38;;;5.74;100.00
50444;BME280;36370;52.216;21.142;2022-11-15T04:41:06;100681.63;;;5.60;100.00
50444;BME280;36370;52.216;21.142;2022-11-15T04:45:26;100670.94;;;5.91;100.00
50444;BME280;36370;52.216;21.142;2022-11-15T04:49:47;100672.66;;;5.69;100.00
50444;BME280;36370;52.216;21.142;2022-11-15T04:54:07;100679.41;;;5.49;100.00
50444;BME280;36370;52.216;21.142;2022-11-15T04:58:28;100677.84;;;5.69;100.00
50444;BME280;36370;52.216;21.142;2022-11-15T05:02:48;100671.94;;;5.64;100.00
50444;BME280;36370;52.216;21.142;2022-11-15T05:07:31;100676.75;;;5.51;100.00
50444;BME280;36370;52.216;21.142;2022-11-15T05:11:52;100670.94;;;5.68;100.00
50444;BME280;36370;52.216;21.142;2022-11-15T05:16:12;100669.22;;;5.67;100.00
50444;BME280;36370;52.216;21.142;2022-11-15T05:20:32;100663.56;;;5.79;100.00
50444;BME280;36370;52.216;21.142;2022-11-15T05:24:53;100650.34;;;5.84;100.00
50444;BME280;36370;52.216;21.142;2022-11-15T05:29:13;100650.06;;;5.68;100.00
50444;BME280;36370;52.216;21.142;2022-11-15T05:33:35;100665.44;;;5.52;100.00
50444;BME280;36370;52.216;21.142;2022-11-15T05:37:56;100661.63;;;5.61;100.00
50444;BME280;36370;52.216;21.142;2022-11-15T05:42:16;100660.06;;;5.56;100.00
50444;BME280;36370;52.216;21.142;2022-11-15T05:46:38;100664.88;;;5.67;100.00
50444;BME280;36370;52.216;21.142;2022-11-15T05:51:01;100669.00;;;5.73;100.00
50444;BME280;36370;52.216;21.142;2022-11-15T05:55:22;100650.84;;;5.70;100.00
50444;BME280;36370;52.216;21.142;2022-11-15T05:59:42;100660.50;;;5.68;100.00
50444;BME280;36370;52.216;21.142;2022-11-15T06:04:03;100658.78;;;5.67;100.00
50444;BME280;36370;52.216;21.142;2022-11-15T06:08:24;100663.56;;;5.55;100.00
50444;BME280;36370;52.216;21.142;2022-11-15T06:12:45;100670.91;;;5.44;100.00
50444;BME280;36370;52.216;21.142;2022-11-15T06:17:05;100663.66;;;5.52;100.00
50444;BME280;36370;52.216;21.142;2022-11-15T06:21:30;100667.13;;;5.53;100.00
50444;BME280;36370;52.216;21.142;2022-11-15T06:25:51;100667.22;;;5.50;100.00
50444;BME280;36370;52.216;21.142;2022-11-15T06:30:11;100667.06;;;5.54;100.00
50444;BME280;36370;52.216;21.142;2022-11-15T06:34:32;100670.81;;;5.47;100.00
50444;BME280;36370;52.216;21.142;2022-11-15T06:38:52;100669.44;;;5.61;100.00
50444;BME280;36370;52.216;21.142;2022-11-15T06:43:13;100675.97;;;5.49;100.00
50444;BME280;36370;52.216;21.142;2022-11-15T06:47:34;100680.84;;;5.33;100.00
50444;BME280;36370;52.216;21.142;2022-11-15T06:51:55;100689.63;;;5.30;100.00
50444;BME280;36370;52.216;21.142;2022-11-15T06:56:15;100684.63;;;5.49;100.00
50444;BME280;36370;52.216;21.142;2022-11-15T07:00:36;100687.72;;;5.35;100.00
50444;BME280;36370;52.216;21.142;2022-11-15T07:04:56;100695.75;;;5.29;100.00
50444;BME280;36370;52.216;21.142;2022-11-15T07:09:17;100696.31;;;5.37;100.00
50444;BME280;36370;52.216;21.142;2022-11-15T07:13:37;100690.84;;;5.45;100.00
50444;BME280;36370;52.216;21.142;2022-11-15T07:18:00;100692.09;;;5.35;100.00
50444;BME280;36370;52.216;21.142;2022-11-15T07:22:20;100688.06;;;5.50;100.00
50444;BME280;36370;52.216;21.142;2022-11-15T07:26:41;100693.13;;;5.54;100.00
50444;BME280;36370;52.216;21.142;2022-11-15T07:31:07;100684.41;;;5.55;100.00
50444;BME280;36370;52.216;21.142;2022-11-15T07:35:28;100678.41;;;5.53;100.00
50444;BME280;36370;52.216;21.142;2022-11-15T07:39:48;100674.09;;;5.52;100.00
50444;BME280;36370;52.216;21.142;2022-11-15T07:44:09;100672.38;;;5.51;100.00
50444;BME280;36370;52.216;21.142;2022-11-15T07:48:30;100662.16;;;5.45;100.00
50444;BME280;36370;52.216;21.142;2022-11-15T07:53:03;100659.50;;;5.47;100.00
50444;BME280;36370;52.216;21.142;2022-11-15T07:57:23;100661.38;;;5.43;100.00
50444;BME280;36370;52.216;21.142;2022-11-15T08:01:44;100648.59;;;5.61;100.00
50444;BME280;36370;52.216;21.142;2022-11-15T08:06:05;100637.81;;;5.46;100.00
50444;BME280;36370;52.216;21.142;2022-11-15T08:10:27;100621.78;;;5.57;100.00
50444;BME280;36370;52.216;21.142;2022-11-15T08:14:47;100620.09;;;5.56;100.00
50444;BME280;36370;52.216;21.142;2022-11-15T08:19:08;100607.47;;;5.69;100.00
50444;BME280;36370;52.216;21.142;2022-11-15T08:23:28;100602.38;;;5.66;100.00
50444;BME280;36370;52.216;21.142;2022-11-15T08:27:52;100593.00;;;5.60;100.00
50444;BME280;36370;52.216;21.142;2022-11-15T08:32:12;100599.72;;;5.89;100.00
50444;BME280;36370;52.216;21.142;2022-11-15T08:36:33;100589.41;;;5.86;100.00
50444;BME280;36370;52.216;21.142;2022-11-15T08:41:04;100584.78;;;5.71;100.00
50444;BME280;36370;52.216;21.142;2022-11-15T08:45:26;100584.09;;;5.89;100.00
50444;BME280;36370;52.216;21.142;2022-11-15T08:49:46;100573.81;;;5.63;100.00
50444;BME280;36370;52.216;21.142;2022-11-15T08:54:07;100579.22;;;5.80;100.00
50444;BME280;36370;52.216;21.142;2022-11-15T08:58:27;100573.09;;;5.81;100.00
50444;BME280;36370;52.216;21.142;2022-11-15T09:02:49;100566.00;;;5.85;100.00
50444;BME280;36370;52.216;21.142;2022-11-15T09:07:10;100565.84;;;6.11;100.00
50444;BME280;36370;52.216;21.142;2022-11-15T09:11:31;100551.66;;;6.19;100.00
50444;BME280;36370;52.216;21.142;2022-11-15T09:15:51;100547.94;;;6.24;100.00
50444;BME280;36370;52.216;21.142;2022-11-15T09:20:12;100553.81;;;5.85;100.00
50444;BME280;36370;52.216;21.142;2022-11-15T09:24:32;100545.34;;;6.02;100.00
50444;BME280;36370;52.216;21.142;2022-11-15T09:28:52;100530.28;;;6.09;100.00
50444;BME280;36370;52.216;21.142;2022-11-15T09:33:13;100526.38;;;5.99;100.00
50444;BME280;36370;52.216;21.142;2022-11-15T09:37:34;100522.41;;;6.10;100.00
50444;BME280;36370;52.216;21.142;2022-11-15T09:51:09;100507.56;;;5.90;100.00
50444;BME280;36370;52.216;21.142;2022-11-15T09:55:14;100502.97;;;5.97;100.00
50444;BME280;36370;52.216;21.142;2022-11-15T10:03:46;100498.16;;;5.86;100.00
50444;BME280;36370;52.216;21.142;2022-11-15T10:12:38;100484.16;;;6.11;100.00
50444;BME280;36370;52.216;21.142;2022-11-15T10:20:49;100480.66;;;6.33;100.00
50444;BME280;36370;52.216;21.142;2022-11-15T10:25:11;100489.63;;;6.25;100.00
50444;BME280;36370;52.216;21.142;2022-11-15T10:29:21;100484.66;;;6.19;100.00
50444;BME280;36370;52.216;21.142;2022-11-15T10:33:36;100483.75;;;6.20;100.00
50444;BME280;36370;52.216;21.142;2022-11-15T10:37:40;100472.25;;;6.24;100.00
50444;BME280;36370;52.216;21.142;2022-11-15T10:41:42;100468.09;;;6.41;100.00
50444;BME280;36370;52.216;21.142;2022-11-15T10:45:45;100460.28;;;6.41;100.00
50444;BME280;36370;52.216;21.142;2022-11-15T10:49:57;100455.31;;;6.35;100.00
50444;BME280;36370;52.216;21.142;2022-11-15T10:54:00;100448.84;;;6.23;100.00
50444;BME280;36370;52.216;21.142;2022-11-15T10:58:05;100450.88;;;6.37;100.00
50444;BME280;36370;52.216;21.142;2022-11-15T11:02:31;100444.69;;;6.39;100.00
50444;BME280;36370;52.216;21.142;2022-11-15T11:06:53;100443.25;;;6.53;100.00
50444;BME280;36370;52.216;21.142;2022-11-15T11:10:58;100429.38;;;6.71;100.00
50444;BME280;36370;52.216;21.142;2022-11-15T11:15:10;100429.59;;;6.67;100.00
50444;BME280;36370;52.216;21.142;2022-11-15T11:19:35;100422.38;;;6.53;100.00
50444;BME280;36370;52.216;21.142;2022-11-15T11:27:56;100426.78;;;6.51;100.00
50444;BME280;36370;52.216;21.142;2022-11-15T11:36:25;100419.28;;;6.63;100.00
50444;BME280;36370;52.216;21.142;2022-11-15T11:40:57;100420.47;;;6.56;100.00
50444;BME280;36370;52.216;21.142;2022-11-15T11:53:39;100393.66;;;6.72;100.00
50444;BME280;36370;52.216;21.142;2022-11-15T12:02:15;100382.59;;;6.67;100.00
50444;BME280;36370;52.216;21.142;2022-11-15T12:06:35;100371.69;;;6.57;100.00
50444;BME280;36370;52.216;21.142;2022-11-15T12:10:39;100367.75;;;6.67;100.00
50444;BME280;36370;52.216;21.142;2022-11-15T12:14:46;100362.41;;;6.70;100.00
50444;BME280;36370;52.216;21.142;2022-11-15T12:18:52;100366.56;;;6.93;100.00
50444;BME280;36370;52.216;21.142;2022-11-15T12:23:11;100365.56;;;6.96;100.00
50444;BME280;36370;52.216;21.142;2022-11-15T12:35:41;100344.72;;;6.94;100.00
50444;BME280;36370;52.216;21.142;2022-11-15T12:40:04;100350.25;;;7.07;100.00
50444;BME280;36370;52.216;21.142;2022-11-15T12:44:12;100343.03;;;7.12;100.00
50444;BME280;36370;52.216;21.142;2022-11-15T12:52:19;100344.59;;;6.97;100.00
50444;BME280;36370;52.216;21.142;2022-11-15T12:56:22;100337.66;;;7.15;100.00
50444;BME280;36370;52.216;21.142;2022-11-15T13:04:27;100331.09;;;7.07;100.00
50444;BME280;36370;52.216;21.142;2022-11-15T13:08:39;100337.50;;;7.18;100.00
50444;BME280;36370;52.216;21.142;2022-11-15T13:16:46;100327.81;;;7.21;100.00
50444;BME280;36370;52.216;21.142;2022-11-15T13:20:49;100326.91;;;7.22;100.00
50444;BME280;36370;52.216;21.142;2022-11-15T13:24:51;100318.53;;;7.15;100.00
50444;BME280;36370;52.216;21.142;2022-11-15T13:28:53;100327.19;;;7.15;100.00
50444;BME280;36370;52.216;21.142;2022-11-15T13:33:05;100310.63;;;6.97;100.00
50444;BME280;36370;52.216;21.142;2022-11-15T13:37:27;100301.88;;;6.98;100.00
50444;BME280;36370;52.216;21.142;2022-11-15T13:41:35;100303.28;;;7.06;100.00
50444;BME280;36370;52.216;21.142;2022-11-15T13:45:37;100298.16;;;7.04;100.00
50444;BME280;36370;52.216;21.142;2022-11-15T13:49:40;100303.22;;;7.07;100.00
50444;BME280;36370;52.216;21.142;2022-11-15T13:53:46;100293.13;;;6.99;100.00
50444;BME280;36370;52.216;21.142;2022-11-15T13:57:57;100293.00;;;7.03;100.00
50444;BME280;36370;52.216;21.142;2022-11-15T14:02:16;100285.69;;;7.09;100.00
50444;BME280;36370;52.216;21.142;2022-11-15T14:06:21;100292.19;;;7.00;100.00
50444;BME280;36370;52.216;21.142;2022-11-15T14:10:27;100302.22;;;7.10;100.00
50444;BME280;36370;52.216;21.142;2022-11-15T14:14:29;100298.63;;;7.12;100.00
50444;BME280;36370;52.216;21.142;2022-11-15T14:18:43;100288.91;;;6.97;100.00
50444;BME280;36370;52.216;21.142;2022-11-15T14:23:03;100282.97;;;6.93;100.00
50444;BME280;36370;52.216;21.142;2022-11-15T14:27:21;100279.50;;;6.93;100.00
50444;BME280;36370;52.216;21.142;2022-11-15T14:31:23;100280.22;;;6.77;100.00
50444;BME280;36370;52.216;21.142;2022-11-15T14:35:26;100273.69;;;6.69;100.00
50444;BME280;36370;52.216;21.142;2022-11-15T14:39:27;100267.44;;;6.73;100.00
50444;BME280;36370;52.216;21.142;2022-11-15T14:43:29;100267.00;;;6.63;100.00
50444;BME280;36370;52.216;21.142;2022-11-15T14:47:31;100273.97;;;6.62;100.00
50444;BME280;36370;52.216;21.142;2022-11-15T14:51:33;100271.81;;;6.53;100.00
50444;BME280;36370;52.216;21.142;2022-11-15T14:55:35;100277.72;;;6.57;100.00
50444;BME280;36370;52.216;21.142;2022-11-15T14:59:38;100278.00;;;6.51;100.00
50444;BME280;36370;52.216;21.142;2022-11-15T15:03:44;100283.00;;;6.55;100.00
50444;BME280;36370;52.216;21.142;2022-11-15T15:07:47;100277.22;;;6.49;100.00
50444;BME280;36370;52.216;21.142;2022-11-15T15:11:50;100277.84;;;6.54;100.00
50444;BME280;36370;52.216;21.142;2022-11-15T15:15:52;100268.50;;;6.50;100.00
50444;BME280;36370;52.216;21.142;2022-11-15T15:19:54;100271.88;;;6.52;100.00
50444;BME280;36370;52.216;21.142;2022-11-15T15:23:56;100281.53;;;6.50;100.00
50444;BME280;36370;52.216;21.142;2022-11-15T15:27:59;100271.94;;;6.50;100.00
50444;BME280;36370;52.216;21.142;2022-11-15T15:32:01;100270.25;;;6.49;100.00
50444;BME280;36370;52.216;21.142;2022-11-15T15:36:03;100258.69;;;6.55;100.00
50444;BME280;36370;52.216;21.142;2022-11-15T15:40:13;100267.91;;;6.43;100.00
50444;BME280;36370;52.216;21.142;2022-11-15T15:44:15;100269.41;;;6.49;100.00
50444;BME280;36370;52.216;21.142;2022-11-15T15:48:17;100269.19;;;6.34;100.00
50444;BME280;36370;52.216;21.142;2022-11-15T15:52:19;100265.38;;;6.41;100.00
50444;BME280;36370;52.216;21.142;2022-11-15T15:56:21;100254.44;;;6.33;100.00
50444;BME280;36370;52.216;21.142;2022-11-15T16:00:24;100260.16;;;6.41;100.00
50444;BME280;36370;52.216;21.142;2022-11-15T16:04:26;100248.66;;;6.26;100.00
50444;BME280;36370;52.216;21.142;2022-11-15T16:08:30;100250.63;;;6.21;100.00
50444;BME280;36370;52.216;21.142;2022-11-15T16:12:48;100252.47;;;6.19;100.00
50444;BME280;36370;52.216;21.142;2022-11-15T16:16:50;100253.03;;;6.26;100.00
50444;BME280;36370;52.216;21.142;2022-11-15T16:20:52;100263.66;;;6.21;100.00
50444;BME280;36370;52.216;21.142;2022-11-15T16:24:58;100263.59;;;6.23;100.00
50444;BME280;36370;52.216;21.142;2022-11-15T16:29:00;100239.91;;;6.27;100.00
50444;BME280;36370;52.216;21.142;2022-11-15T16:33:01;100248.75;;;6.25;100.00
50444;BME280;36370;52.216;21.142;2022-11-15T16:37:04;100251.22;;;6.28;100.00
50444;BME280;36370;52.216;21.142;2022-11-15T16:41:06;100249.72;;;6.22;100.00
50444;BME280;36370;52.216;21.142;2022-11-15T16:45:11;100250.41;;;6.07;100.00
50444;BME280;36370;52.216;21.142;2022-11-15T16:49:14;100256.84;;;6.00;100.00
50444;BME280;36370;52.216;21.142;2022-11-15T16:53:16;100256.53;;;6.06;100.00
50444;BME280;36370;52.216;21.142;2022-11-15T16:57:18;100255.00;;;6.02;100.00
50444;BME280;36370;52.216;21.142;2022-11-15T17:01:32;100249.25;;;5.93;100.00
50444;BME280;36370;52.216;21.142;2022-11-15T17:05:36;100255.28;;;5.94;100.00
50444;BME280;36370;52.216;21.142;2022-11-15T17:09:38;100248.06;;;6.01;100.00
50444;BME280;36370;52.216;21.142;2022-11-15T17:13:40;100262.41;;;5.90;100.00
50444;BME280;36370;52.216;21.142;2022-11-15T17:17:43;100256.59;;;6.04;100.00
50444;BME280;36370;52.216;21.142;2022-11-15T17:21:47;100262.03;;;6.00;100.00
50444;BME280;36370;52.216;21.142;2022-11-15T17:26:00;100253.66;;;5.91;100.00
50444;BME280;36370;52.216;21.142;2022-11-15T17:30:24;100256.81;;;5.79;100.00
50444;BME280;36370;52.216;21.142;2022-11-15T17:34:27;100259.09;;;5.66;100.00
50444;BME280;36370;52.216;21.142;2022-11-15T17:38:29;100264.81;;;5.74;100.00
50444;BME280;36370;52.216;21.142;2022-11-15T17:42:31;100265.69;;;5.75;100.00
50444;BME280;36370;52.216;21.142;2022-11-15T17:46:33;100264.00;;;5.53;100.00
50444;BME280;36370;52.216;21.142;2022-11-15T17:50:37;100261.50;;;5.71;100.00
50444;BME280;36370;52.216;21.142;2022-11-15T17:54:39;100257.59;;;5.61;100.00
50444;BME280;36370;52.216;21.142;2022-11-15T17:58:41;100258.34;;;5.64;100.00
50444;BME280;36370;52.216;21.142;2022-11-15T18:02:47;100252.66;;;5.54;100.00
50444;BME280;36370;52.216;21.142;2022-11-15T18:06:49;100256.97;;;5.55;100.00
50444;BME280;36370;52.216;21.142;2022-11-15T18:11:03;100257.72;;;5.57;100.00
50444;BME280;36370;52.216;21.142;2022-11-15T18:15:06;100242.97;;;5.58;100.00
50444;BME280;36370;52.216;21.142;2022-11-15T18:19:08;100235.50;;;5.69;100.00
50444;BME280;36370;52.216;21.142;2022-11-15T18:23:15;100230.88;;;5.76;100.00
50444;BME280;36370;52.216;21.142;2022-11-15T18:27:17;100234.94;;;5.63;100.00
50444;BME280;36370;52.216;21.142;2022-11-15T18:31:20;100235.84;;;5.62;100.00
50444;BME280;36370;52.216;21.142;2022-11-15T18:35:23;100239.03;;;5.48;100.00
50444;BME280;36370;52.216;21.142;2022-11-15T18:39:25;100235.66;;;5.46;100.00
50444;BME280;36370;52.216;21.142;2022-11-15T18:43:26;100235.28;;;5.55;100.00
50444;BME280;36370;52.216;21.142;2022-11-15T18:47:28;100236.44;;;5.48;100.00
50444;BME280;36370;52.216;21.142;2022-11-15T18:51:33;100240.63;;;5.52;100.00
50444;BME280;36370;52.216;21.142;2022-11-15T18:55:36;100242.75;;;5.42;100.00
50444;BME280;36370;52.216;21.142;2022-11-15T18:59:38;100249.66;;;5.43;100.00
50444;BME280;36370;52.216;21.142;2022-11-15T19:03:42;100246.72;;;5.30;100.00
50444;BME280;36370;52.216;21.142;2022-11-15T19:07:47;100258.38;;;5.21;100.00
50444;BME280;36370;52.216;21.142;2022-11-15T19:11:49;100252.25;;;5.22;100.00
50444;BME280;36370;52.216;21.142;2022-11-15T19:15:57;100237.84;;;5.34;100.00
50444;BME280;36370;52.216;21.142;2022-11-15T19:19:59;100232.69;;;5.33;100.00
50444;BME280;36370;52.216;21.142;2022-11-15T19:24:01;100228.44;;;5.32;100.00
50444;BME280;36370;52.216;21.142;2022-11-15T19:28:03;100225.63;;;5.36;100.00
50444;BME280;36370;52.216;21.142;2022-11-15T19:32:05;100232.63;;;5.34;100.00
50444;BME280;36370;52.216;21.142;2022-11-15T19:36:11;100232.13;;;5.47;100.00
50444;BME280;36370;52.216;21.142;2022-11-15T19:40:13;100226.34;;;5.40;100.00
50444;BME280;36370;52.216;21.142;2022-11-15T19:44:15;100226.28;;;5.42;100.00
50444;BME280;36370;52.216;21.142;2022-11-15T19:48:19;100230.44;;;5.46;100.00
50444;BME280;36370;52.216;21.142;2022-11-15T19:52:21;100227.03;;;5.44;100.00
50444;BME280;36370;52.216;21.142;2022-11-15T19:56:24;100222.69;;;5.24;100.00
50444;BME280;36370;52.216;21.142;2022-11-15T20:00:26;100215.41;;;5.32;100.00
50444;BME280;36370;52.216;21.142;2022-11-15T20:04:28;100217.44;;;5.25;100.00
50444;BME280;36370;52.216;21.142;2022-11-15T20:08:30;100214.09;;;5.21;100.00
50444;BME280;36370;52.216;21.142;2022-11-15T20:12:33;100201.78;;;5.25;100.00
50444;BME280;36370;52.216;21.142;2022-11-15T20:16:34;100210.56;;;5.22;100.00
50444;BME280;36370;52.216;21.142;2022-11-15T20:20:36;100213.63;;;5.12;100.00
50444;BME280;36370;52.216;21.142;2022-11-15T20:24:38;100205.63;;;5.16;100.00
50444;BME280;36370;52.216;21.142;2022-11-15T20:28:40;100200.66;;;5.10;100.00
50444;BME280;36370;52.216;21.142;2022-11-15T20:32:42;100201.69;;;5.06;100.00
50444;BME280;36370;52.216;21.142;2022-11-15T20:36:44;100206.19;;;5.02;100.00
50444;BME280;36370;52.216;21.142;2022-11-15T20:40:48;100213.16;;;5.02;100.00
50444;BME280;36370;52.216;21.142;2022-11-15T20:44:50;100212.00;;;5.09;100.00
50444;BME280;36370;52.216;21.142;2022-11-15T20:48:52;100210.84;;;5.16;100.00
50444;BME280;36370;52.216;21.142;2022-11-15T20:52:54;100221.69;;;5.06;100.00
50444;BME280;36370;52.216;21.142;2022-11-15T20:56:58;100214.72;;;5.06;100.00
50444;BME280;36370;52.216;21.142;2022-11-15T21:01:00;100208.16;;;4.97;100.00
50444;BME280;36370;52.216;21.142;2022-11-15T21:05:02;100198.69;;;4.95;100.00
50444;BME280;36370;52.216;21.142;2022-11-15T21:09:04;100204.97;;;5.11;100.00
50444;BME280;36370;52.216;21.142;2022-11-15T21:13:25;100200.66;;;5.10;100.00
50444;BME280;36370;52.216;21.142;2022-11-15T21:17:27;100201.53;;;4.89;100.00
50444;BME280;36370;52.216;21.142;2022-11-15T21:21:29;100209.00;;;4.98;100.00
50444;BME280;36370;52.216;21.142;2022-11-15T21:25:32;100205.28;;;5.03;100.00
50444;BME280;36370;52.216;21.142;2022-11-15T21:29:34;100200.59;;;5.12;100.00
50444;BME280;36370;52.216;21.142;2022-11-15T21:33:39;100196.28;;;5.11;100.00
50444;BME280;36370;52.216;21.142;2022-11-15T21:37:41;100188.63;;;5.08;100.00
50444;BME280;36370;52.216;21.142;2022-11-15T21:41:43;100180.53;;;5.14;100.00
50444;BME280;36370;52.216;21.142;2022-11-15T21:45:56;100185.50;;;5.20;100.00
50444;BME280;36370;52.216;21.142;2022-11-15T21:49:58;100171.25;;;5.29;100.00
50444;BME280;36370;52.216;21.142;2022-11-15T21:54:00;100164.25;;;5.29;100.00
50444;BME280;36370;52.216;21.142;2022-11-15T21:58:02;100166.09;;;5.27;100.00
50444;BME280;36370;52.216;21.142;2022-11-15T22:02:05;100161.09;;;5.22;100.00
50444;BME280;36370;52.216;21.142;2022-11-15T22:06:15;100153.41;;;5.19;100.00
50444;BME280;36370;52.216;21.142;2022-11-15T22:10:19;100153.09;;;5.07;100.00
50444;BME280;36370;52.216;21.142;2022-11-15T22:14:21;100147.94;;;5.26;100.00
50444;BME280;36370;52.216;21.142;2022-11-15T22:18:23;100143.81;;;5.20;100.00
50444;BME280;36370;52.216;21.142;2022-11-15T22:22:27;100143.56;;;5.26;100.00
50444;BME280;36370;52.216;21.142;2022-11-15T22:26:29;100134.25;;;5.20;100.00
50444;BME280;36370;52.216;21.142;2022-11-15T22:30:31;100128.94;;;5.24;100.00
50444;BME280;36370;52.216;21.142;2022-11-15T22:34:33;100121.47;;;5.35;100.00
50444;BME280;36370;52.216;21.142;2022-11-15T22:38:35;100116.06;;;5.39;100.00
50444;BME280;36370;52.216;21.142;2022-11-15T22:42:37;100117.31;;;5.31;100.00
50444;BME280;36370;52.216;21.142;2022-11-15T22:46:39;100119.91;;;5.31;100.00
50444;BME280;36370;52.216;21.142;2022-11-15T22:50:42;100122.88;;;5.42;100.00
50444;BME280;36370;52.216;21.142;2022-11-15T22:54:44;100113.16;;;5.27;100.00
50444;BME280;36370;52.216;21.142;2022-11-15T22:58:46;100108.91;;;5.24;100.00
50444;BME280;36370;52.216;21.142;2022-11-15T23:02:50;100113.72;;;5.33;100.00
50444;BME280;36370;52.216;21.142;2022-11-15T23:06:55;100098.44;;;5.26;100.00
50444;BME280;36370;52.216;21.142;2022-11-15T23:11:01;100105.84;;;5.35;100.00
50444;BME280;36370;52.216;21.142;2022-11-15T23:15:22;100094.41;;;5.37;100.00